sensor_id;sensor_type;location;lat;lon;timestamp;P1;durP1;ratioP1;P2;durP2;ratioP2
5428;SDS011;2737;52.386;9.980;2024-03-23T00:56:13;16.10;;;6.90;;
5428;SDS011;2737;52.386;9.980;2024-03-23T00:58:39;15.27;;;7.80;;
5428;SDS011;2737;52.386;9.980;2024-03-23T01:01:06;17.10;;;6.90;;
5428;SDS011;2737;52.386;9.980;2024-03-23T01:03:32;17.10;;;8.27;;
5428;SDS011;2737;52.386;9.980;2024-03-23T01:05:59;21.17;;;7.70;;
5428;SDS011;2737;52.386;9.980;2024-03-23T01:08:25;16.13;;;8.03;;
5428;SDS011;2737;52.386;9.980;2024-03-23T01:10:57;17.10;;;7.27;;
5428;SDS011;2737;52.386;9.980;2024-03-23T01:13:24;17.93;;;8.20;;
5428;SDS011;2737;52.386;9.980;2024-03-23T01:15:51;16.90;;;6.90;;
5428;SDS011;2737;52.386;9.980;2024-03-23T01:18:18;16.50;;;7.67;;
5428;SDS011;2737;52.386;9.980;2024-03-23T01:20:45;20.80;;;8.50;;
5428;SDS011;2737;52.386;9.980;2024-03-23T01:23:11;19.80;;;7.27;;
5428;SDS011;2737;52.386;9.980;2024-03-23T01:25:38;14.70;;;6.90;;
5428;SDS011;2737;52.386;9.980;2024-03-23T01:28:06;19.47;;;7.37;;
5428;SDS011;2737;52.386;9.980;2024-03-23T01:30:33;28.27;;;7.40;;
5428;SDS011;2737;52.386;9.980;2024-03-23T01:33:00;16.63;;;6.53;;
5428;SDS011;2737;52.386;9.980;2024-03-23T01:35:27;15.50;;;6.97;;
5428;SDS011;2737;52.386;9.980;2024-03-23T01:37:54;22.93;;;6.80;;
5428;SDS011;2737;52.386;9.980;2024-03-23T01:40:21;19.33;;;7.53;;
5428;SDS011;2737;52.386;9.980;2024-03-23T01:42:55;16.53;;;7.20;;
5428;SDS011;2737;52.386;9.980;2024-03-23T01:45:23;22.70;;;8.47;;
5428;SDS011;2737;52.386;9.980;2024-03-23T01:47:49;19.63;;;7.20;;
5428;SDS011;2737;52.386;9.980;2024-03-23T01:50:17;26.17;;;7.13;;
5428;SDS011;2737;52.386;9.980;2024-03-23T01:52:44;22.33;;;7.10;;
5428;SDS011;2737;52.386;9.980;2024-03-23T01:55:11;18.77;;;6.90;;
5428;SDS011;2737;52.386;9.980;2024-03-23T01:57:37;20.87;;;7.23;;
5428;SDS011;2737;52.386;9.980;2024-03-23T02:00:05;22.83;;;7.60;;
5428;SDS011;2737;52.386;9.980;2024-03-23T02:02:33;20.13;;;7.53;;
5428;SDS011;2737;52.386;9.980;2024-03-23T02:05:00;24.90;;;7.83;;
5428;SDS011;2737;52.386;9.980;2024-03-23T02:07:26;16.93;;;7.07;;
5428;SDS011;2737;52.386;9.980;2024-03-23T02:09:54;22.93;;;8.60;;
5428;SDS011;2737;52.386;9.980;2024-03-23T02:12:20;23.63;;;7.93;;
5428;SDS011;2737;52.386;9.980;2024-03-23T02:14:47;18.63;;;7.33;;
5428;SDS011;2737;52.386;9.980;2024-03-23T02:17:13;24.23;;;8.50;;
5428;SDS011;2737;52.386;9.980;2024-03-23T02:19:42;24.50;;;8.67;;
5428;SDS011;2737;52.386;9.980;2024-03-23T02:22:08;18.57;;;7.37;;
5428;SDS011;2737;52.386;9.980;2024-03-23T02:24:37;20.27;;;7.57;;
5428;SDS011;2737;52.386;9.980;2024-03-23T02:27:03;20.27;;;7.47;;
5428;SDS011;2737;52.386;9.980;2024-03-23T02:29:30;18.47;;;8.43;;
5428;SDS011;2737;52.386;9.980;2024-03-23T02:31:56;25.47;;;6.90;;
5428;SDS011;2737;52.386;9.980;2024-03-23T02:34:24;15.83;;;7.57;;
5428;SDS011;2737;52.386;9.980;2024-03-23T02:36:50;18.47;;;6.60;;
5428;SDS011;2737;52.386;9.980;2024-03-23T02:39:17;30.47;;;6.87;;
5428;SDS011;2737;52.386;9.980;2024-03-23T02:41:45;18.93;;;6.87;;
5428;SDS011;2737;52.386;9.980;2024-03-23T02:44:13;17.90;;;5.60;;
5428;SDS011;2737;52.386;9.980;2024-03-23T02:46:39;19.80;;;5.60;;
5428;SDS011;2737;52.386;9.980;2024-03-23T02:49:06;18.60;;;5.40;;
5428;SDS011;2737;52.386;9.980;2024-03-23T02:51:32;17.63;;;6.50;;
5428;SDS011;2737;52.386;9.980;2024-03-23T02:53:59;14.80;;;5.77;;
5428;SDS011;2737;52.386;9.980;2024-03-23T02:56:25;26.47;;;6.40;;
5428;SDS011;2737;52.386;9.980;2024-03-23T02:58:53;20.67;;;5.70;;
5428;SDS011;2737;52.386;9.980;2024-03-23T03:01:19;13.73;;;5.43;;
5428;SDS011;2737;52.386;9.980;2024-03-23T03:03:46;22.87;;;6.17;;
5428;SDS011;2737;52.386;9.980;2024-03-23T03:06:22;13.63;;;5.10;;
5428;SDS011;2737;52.386;9.980;2024-03-23T03:08:49;12.27;;;5.23;;
5428;SDS011;2737;52.386;9.980;2024-03-23T03:11:15;16.20;;;5.77;;
5428;SDS011;2737;52.386;9.980;2024-03-23T03:13:42;26.13;;;6.17;;
5428;SDS011;2737;52.386;9.980;2024-03-23T03:16:10;14.20;;;4.93;;
5428;SDS011;2737;52.386;9.980;2024-03-23T03:18:38;14.67;;;6.10;;
5428;SDS011;2737;52.386;9.980;2024-03-23T03:21:05;17.17;;;5.50;;
5428;SDS011;2737;52.386;9.980;2024-03-23T03:23:36;12.90;;;5.60;;
5428;SDS011;2737;52.386;9.980;2024-03-23T03:26:03;12.10;;;5.20;;
5428;SDS011;2737;52.386;9.980;2024-03-23T03:28:29;13.90;;;4.73;;
5428;SDS011;2737;52.386;9.980;2024-03-23T03:30:57;18.00;;;6.17;;
5428;SDS011;2737;52.386;9.980;2024-03-23T03:33:25;14.40;;;6.43;;
5428;SDS011;2737;52.386;9.980;2024-03-23T03:35:52;15.63;;;5.47;;
5428;SDS011;2737;52.386;9.980;2024-03-23T03:38:18;13.30;;;4.80;;
5428;SDS011;2737;52.386;9.980;2024-03-23T03:40:46;17.70;;;5.17;;
5428;SDS011;2737;52.386;9.980;2024-03-23T03:43:12;18.47;;;5.23;;
5428;SDS011;2737;52.386;9.980;2024-03-23T03:45:39;16.13;;;5.03;;
5428;SDS011;2737;52.386;9.980;2024-03-23T03:48:06;21.07;;;5.03;;
5428;SDS011;2737;52.386;9.980;2024-03-23T03:50:34;15.40;;;5.10;;
5428;SDS011;2737;52.386;9.980;2024-03-23T03:53:00;11.03;;;5.10;;
5428;SDS011;2737;52.386;9.980;2024-03-23T03:55:27;13.20;;;4.63;;
5428;SDS011;2737;52.386;9.980;2024-03-23T03:57:53;23.87;;;5.10;;
5428;SDS011;2737;52.386;9.980;2024-03-23T04:00:20;16.77;;;6.30;;
5428;SDS011;2737;52.386;9.980;2024-03-23T04:02:46;17.87;;;5.07;;
5428;SDS011;2737;52.386;9.980;2024-03-23T04:05:13;18.53;;;5.20;;
5428;SDS011;2737;52.386;9.980;2024-03-23T04:07:41;21.13;;;5.60;;
5428;SDS011;2737;52.386;9.980;2024-03-23T04:10:09;16.53;;;4.40;;
5428;SDS011;2737;52.386;9.980;2024-03-23T04:12:35;19.67;;;4.67;;
5428;SDS011;2737;52.386;9.980;2024-03-23T04:15:02;22.80;;;5.20;;
5428;SDS011;2737;52.386;9.980;2024-03-23T04:17:30;14.57;;;3.27;;
5428;SDS011;2737;52.386;9.980;2024-03-23T04:19:59;10.93;;;3.80;;
5428;SDS011;2737;52.386;9.980;2024-03-23T04:22:26;17.80;;;3.70;;
5428;SDS011;2737;52.386;9.980;2024-03-23T04:24:55;18.47;;;4.13;;
5428;SDS011;2737;52.386;9.980;2024-03-23T04:27:22;13.53;;;3.40;;
5428;SDS011;2737;52.386;9.980;2024-03-23T04:29:49;20.03;;;3.37;;
5428;SDS011;2737;52.386;9.980;2024-03-23T04:32:15;17.80;;;4.13;;
5428;SDS011;2737;52.386;9.980;2024-03-23T04:34:43;20.97;;;4.63;;
5428;SDS011;2737;52.386;9.980;2024-03-23T04:37:10;20.63;;;5.10;;
5428;SDS011;2737;52.386;9.980;2024-03-23T04:39:37;14.40;;;3.70;;
5428;SDS011;2737;52.386;9.980;2024-03-23T04:42:06;15.33;;;3.50;;
5428;SDS011;2737;52.386;9.980;2024-03-23T04:44:33;15.97;;;3.30;;
5428;SDS011;2737;52.386;9.980;2024-03-23T04:47:00;11.30;;;3.20;;
5428;SDS011;2737;52.386;9.980;2024-03-23T04:49:27;12.57;;;2.97;;
5428;SDS011;2737;52.386;9.980;2024-03-23T04:51:54;9.90;;;2.63;;
5428;SDS011;2737;52.386;9.980;2024-03-23T04:54:21;21.47;;;4.77;;
5428;SDS011;2737;52.386;9.980;2024-03-23T04:56:48;17.57;;;2.70;;
5428;SDS011;2737;52.386;9.980;2024-03-23T04:59:17;21.30;;;3.20;;
5428;SDS011;2737;52.386;9.980;2024-03-23T05:01:43;10.70;;;2.17;;
5428;SDS011;2737;52.386;9.980;2024-03-23T05:04:10;11.80;;;2.87;;
5428;SDS011;2737;52.386;9.980;2024-03-23T05:06:36;10.13;;;3.17;;
5428;SDS011;2737;52.386;9.980;2024-03-23T05:09:03;11.77;;;2.90;;
5428;SDS011;2737;52.386;9.980;2024-03-23T05:11:31;7.53;;;2.50;;
5428;SDS011;2737;52.386;9.980;2024-03-23T05:13:58;13.40;;;3.07;;
5428;SDS011;2737;52.386;9.980;2024-03-23T05:16:26;14.27;;;3.20;;
5428;SDS011;2737;52.386;9.980;2024-03-23T05:18:53;10.23;;;3.30;;
5428;SDS011;2737;52.386;9.980;2024-03-23T05:21:19;18.33;;;3.30;;
5428;SDS011;2737;52.386;9.980;2024-03-23T05:23:46;7.77;;;2.77;;
5428;SDS011;2737;52.386;9.980;2024-03-23T05:26:12;10.80;;;2.77;;
5428;SDS011;2737;52.386;9.980;2024-03-23T05:28:40;7.30;;;2.17;;
5428;SDS011;2737;52.386;9.980;2024-03-23T05:31:06;12.70;;;2.50;;
5428;SDS011;2737;52.386;9.980;2024-03-23T05:33:35;8.30;;;2.00;;
5428;SDS011;2737;52.386;9.980;2024-03-23T05:36:03;8.43;;;2.00;;
5428;SDS011;2737;52.386;9.980;2024-03-23T05:38:33;3.63;;;1.70;;
5428;SDS011;2737;52.386;9.980;2024-03-23T05:41:00;10.40;;;2.53;;
5428;SDS011;2737;52.386;9.980;2024-03-23T05:43:27;4.63;;;1.40;;
5428;SDS011;2737;52.386;9.980;2024-03-23T05:45:54;10.33;;;1.20;;
5428;SDS011;2737;52.386;9.980;2024-03-23T05:48:21;1.90;;;1.00;;
5428;SDS011;2737;52.386;9.980;2024-03-23T05:50:49;7.37;;;2.10;;
5428;SDS011;2737;52.386;9.980;2024-03-23T05:53:16;7.43;;;1.20;;
5428;SDS011;2737;52.386;9.980;2024-03-23T05:55:43;5.60;;;1.87;;
5428;SDS011;2737;52.386;9.980;2024-03-23T05:58:11;3.53;;;1.47;;
5428;SDS011;2737;52.386;9.980;2024-03-23T06:00:37;9.63;;;2.67;;
5428;SDS011;2737;52.386;9.980;2024-03-23T06:03:04;11.60;;;1.30;;
5428;SDS011;2737;52.386;9.980;2024-03-23T06:05:30;7.17;;;1.63;;
5428;SDS011;2737;52.386;9.980;2024-03-23T06:07:59;7.40;;;1.30;;
5428;SDS011;2737;52.386;9.980;2024-03-23T06:10:25;17.47;;;2.70;;
5428;SDS011;2737;52.386;9.980;2024-03-23T06:12:52;7.63;;;1.80;;
5428;SDS011;2737;52.386;9.980;2024-03-23T06:15:18;5.17;;;1.40;;
5428;SDS011;2737;52.386;9.980;2024-03-23T06:17:45;8.00;;;1.83;;
5428;SDS011;2737;52.386;9.980;2024-03-23T06:20:12;7.20;;;2.17;;
5428;SDS011;2737;52.386;9.980;2024-03-23T06:22:38;4.10;;;1.17;;
5428;SDS011;2737;52.386;9.980;2024-03-23T06:25:07;8.57;;;1.70;;
5428;SDS011;2737;52.386;9.980;2024-03-23T06:27:34;5.23;;;1.30;;
5428;SDS011;2737;52.386;9.980;2024-03-23T06:30:01;10.40;;;3.00;;
5428;SDS011;2737;52.386;9.980;2024-03-23T06:32:27;8.00;;;1.90;;
5428;SDS011;2737;52.386;9.980;2024-03-23T06:34:55;8.70;;;1.43;;
5428;SDS011;2737;52.386;9.980;2024-03-23T06:37:21;5.77;;;1.57;;
5428;SDS011;2737;52.386;9.980;2024-03-23T06:39:48;9.60;;;1.70;;
5428;SDS011;2737;52.386;9.980;2024-03-23T06:42:15;8.33;;;1.70;;
5428;SDS011;2737;52.386;9.980;2024-03-23T06:44:43;5.23;;;1.70;;
5428;SDS011;2737;52.386;9.980;2024-03-23T06:47:09;4.13;;;1.47;;
5428;SDS011;2737;52.386;9.980;2024-03-23T06:49:36;5.47;;;1.70;;
5428;SDS011;2737;52.386;9.980;2024-03-23T06:52:02;10.13;;;2.57;;
5428;SDS011;2737;52.386;9.980;2024-03-23T06:54:29;6.20;;;1.70;;
5428;SDS011;2737;52.386;9.980;2024-03-23T06:56:55;8.90;;;2.13;;
5428;SDS011;2737;52.386;9.980;2024-03-23T06:59:24;5.90;;;1.83;;
5428;SDS011;2737;52.386;9.980;2024-03-23T07:01:50;7.63;;;2.10;;
5428;SDS011;2737;52.386;9.980;2024-03-23T07:04:17;6.57;;;2.40;;
5428;SDS011;2737;52.386;9.980;2024-03-23T07:06:43;5.60;;;1.87;;
5428;SDS011;2737;52.386;9.980;2024-03-23T07:09:11;9.00;;;1.97;;
5428;SDS011;2737;52.386;9.980;2024-03-23T07:11:37;9.97;;;2.20;;
5428;SDS011;2737;52.386;9.980;2024-03-23T07:14:04;4.03;;;1.83;;
5428;SDS011;2737;52.386;9.980;2024-03-23T07:16:32;13.93;;;1.97;;
5428;SDS011;2737;52.386;9.980;2024-03-23T07:18:59;10.03;;;2.67;;
5428;SDS011;2737;52.386;9.980;2024-03-23T07:21:25;11.63;;;3.10;;
5428;SDS011;2737;52.386;9.980;2024-03-23T07:23:52;6.80;;;2.37;;
5428;SDS011;2737;52.386;9.980;2024-03-23T07:26:18;13.60;;;3.07;;
5428;SDS011;2737;52.386;9.980;2024-03-23T07:28:45;12.40;;;3.73;;
5428;SDS011;2737;52.386;9.980;2024-03-23T07:31:12;8.43;;;2.60;;
5428;SDS011;2737;52.386;9.980;2024-03-23T07:33:45;11.83;;;2.50;;
5428;SDS011;2737;52.386;9.980;2024-03-23T07:36:12;18.60;;;3.03;;
5428;SDS011;2737;52.386;9.980;2024-03-23T07:38:40;13.80;;;2.97;;
5428;SDS011;2737;52.386;9.980;2024-03-23T07:41:06;20.73;;;4.60;;
5428;SDS011;2737;52.386;9.980;2024-03-23T07:43:34;10.57;;;3.57;;
5428;SDS011;2737;52.386;9.980;2024-03-23T07:46:00;9.67;;;3.23;;
5428;SDS011;2737;52.386;9.980;2024-03-23T07:48:28;17.73;;;3.67;;
5428;SDS011;2737;52.386;9.980;2024-03-23T07:50:59;22.20;;;4.07;;
5428;SDS011;2737;52.386;9.980;2024-03-23T07:53:28;21.90;;;5.20;;
5428;SDS011;2737;52.386;9.980;2024-03-23T07:55:54;14.30;;;4.17;;
5428;SDS011;2737;52.386;9.980;2024-03-23T07:58:22;15.07;;;3.90;;
5428;SDS011;2737;52.386;9.980;2024-03-23T08:00:48;14.60;;;3.60;;
5428;SDS011;2737;52.386;9.980;2024-03-23T08:03:15;22.50;;;5.03;;
5428;SDS011;2737;52.386;9.980;2024-03-23T08:05:41;37.73;;;5.73;;
5428;SDS011;2737;52.386;9.980;2024-03-23T08:08:09;28.80;;;5.20;;
5428;SDS011;2737;52.386;9.980;2024-03-23T08:10:36;25.43;;;6.10;;
5428;SDS011;2737;52.386;9.980;2024-03-23T08:13:03;29.07;;;6.10;;
5428;SDS011;2737;52.386;9.980;2024-03-23T08:15:30;14.80;;;5.00;;
5428;SDS011;2737;52.386;9.980;2024-03-23T08:17:59;26.10;;;6.43;;
5428;SDS011;2737;52.386;9.980;2024-03-23T08:20:25;22.03;;;5.80;;
5428;SDS011;2737;52.386;9.980;2024-03-23T08:22:53;23.27;;;5.80;;
5428;SDS011;2737;52.386;9.980;2024-03-23T08:25:20;33.47;;;6.93;;
5428;SDS011;2737;52.386;9.980;2024-03-23T08:27:47;21.70;;;5.90;;
5428;SDS011;2737;52.386;9.980;2024-03-23T08:30:13;19.17;;;6.80;;
5428;SDS011;2737;52.386;9.980;2024-03-23T08:32:41;28.40;;;7.57;;
5428;SDS011;2737;52.386;9.980;2024-03-23T08:35:08;21.67;;;7.03;;
5428;SDS011;2737;52.386;9.980;2024-03-23T08:37:35;29.97;;;7.53;;
5428;SDS011;2737;52.386;9.980;2024-03-23T08:40:01;33.07;;;8.57;;
5428;SDS011;2737;52.386;9.980;2024-03-23T08:42:31;38.40;;;8.50;;
5428;SDS011;2737;52.386;9.980;2024-03-23T08:44:57;34.43;;;8.23;;
5428;SDS011;2737;52.386;9.980;2024-03-23T08:47:24;29.93;;;8.80;;
5428;SDS011;2737;52.386;9.980;2024-03-23T08:49:50;36.53;;;7.23;;
5428;SDS011;2737;52.386;9.980;2024-03-23T08:52:17;27.67;;;8.33;;
5428;SDS011;2737;52.386;9.980;2024-03-23T08:54:43;33.83;;;8.50;;
5428;SDS011;2737;52.386;9.980;2024-03-23T08:57:11;33.00;;;9.57;;
5428;SDS011;2737;52.386;9.980;2024-03-23T08:59:38;43.23;;;8.23;;
5428;SDS011;2737;52.386;9.980;2024-03-23T09:02:05;34.27;;;9.53;;
5428;SDS011;2737;52.386;9.980;2024-03-23T09:04:31;21.30;;;7.77;;
5428;SDS011;2737;52.386;9.980;2024-03-23T09:06:58;26.50;;;7.40;;
5428;SDS011;2737;52.386;9.980;2024-03-23T09:09:25;26.03;;;7.03;;
5428;SDS011;2737;52.386;9.980;2024-03-23T09:11:52;30.97;;;7.60;;
5428;SDS011;2737;52.386;9.980;2024-03-23T09:14:18;31.53;;;8.30;;
5428;SDS011;2737;52.386;9.980;2024-03-23T09:16:49;18.53;;;6.53;;
5428;SDS011;2737;52.386;9.980;2024-03-23T09:19:16;22.43;;;6.93;;
5428;SDS011;2737;52.386;9.980;2024-03-23T09:21:43;29.37;;;5.77;;
5428;SDS011;2737;52.386;9.980;2024-03-23T09:24:09;23.70;;;5.40;;
5428;SDS011;2737;52.386;9.980;2024-03-23T09:26:36;31.50;;;6.00;;
5428;SDS011;2737;52.386;9.980;2024-03-23T09:29:02;18.43;;;4.60;;
5428;SDS011;2737;52.386;9.980;2024-03-23T09:31:29;15.73;;;4.77;;
5428;SDS011;2737;52.386;9.980;2024-03-23T09:33:58;16.70;;;4.03;;
5428;SDS011;2737;52.386;9.980;2024-03-23T09:36:25;17.13;;;5.00;;
5428;SDS011;2737;52.386;9.980;2024-03-23T09:38:52;16.17;;;4.40;;
5428;SDS011;2737;52.386;9.980;2024-03-23T09:41:18;17.63;;;4.90;;
5428;SDS011;2737;52.386;9.980;2024-03-23T09:43:45;13.40;;;4.17;;
5428;SDS011;2737;52.386;9.980;2024-03-23T09:46:13;21.37;;;4.47;;
5428;SDS011;2737;52.386;9.980;2024-03-23T09:48:41;19.03;;;5.03;;
5428;SDS011;2737;52.386;9.980;2024-03-23T09:51:10;35.13;;;5.03;;
5428;SDS011;2737;52.386;9.980;2024-03-23T09:53:37;18.67;;;3.97;;
5428;SDS011;2737;52.386;9.980;2024-03-23T09:56:03;17.93;;;3.90;;
5428;SDS011;2737;52.386;9.980;2024-03-23T09:58:31;16.90;;;2.93;;
5428;SDS011;2737;52.386;9.980;2024-03-23T10:00:57;10.60;;;3.40;;
5428;SDS011;2737;52.386;9.980;2024-03-23T10:03:24;18.37;;;3.07;;
5428;SDS011;2737;52.386;9.980;2024-03-23T10:06:00;14.10;;;3.50;;
5428;SDS011;2737;52.386;9.980;2024-03-23T10:08:29;14.20;;;3.17;;
5428;SDS011;2737;52.386;9.980;2024-03-23T10:10:55;11.13;;;4.07;;
5428;SDS011;2737;52.386;9.980;2024-03-23T10:13:26;16.33;;;4.30;;
5428;SDS011;2737;52.386;9.980;2024-03-23T10:15:56;15.33;;;4.17;;
5428;SDS011;2737;52.386;9.980;2024-03-23T10:18:24;16.50;;;4.50;;
5428;SDS011;2737;52.386;9.980;2024-03-23T10:20:52;8.63;;;3.80;;
5428;SDS011;2737;52.386;9.980;2024-03-23T10:23:35;17.13;;;4.20;;
5428;SDS011;2737;52.386;9.980;2024-03-23T10:26:15;20.83;;;4.60;;
5428;SDS011;2737;52.386;9.980;2024-03-23T10:28:52;17.73;;;4.10;;
5428;SDS011;2737;52.386;9.980;2024-03-23T10:31:20;12.87;;;3.30;;
5428;SDS011;2737;52.386;9.980;2024-03-23T10:33:47;9.53;;;2.90;;
5428;SDS011;2737;52.386;9.980;2024-03-23T10:36:14;13.50;;;2.90;;
5428;SDS011;2737;52.386;9.980;2024-03-23T10:38:42;29.80;;;4.00;;
5428;SDS011;2737;52.386;9.980;2024-03-23T10:41:10;9.37;;;2.33;;
5428;SDS011;2737;52.386;9.980;2024-03-23T10:43:37;9.60;;;1.97;;
5428;SDS011;2737;52.386;9.980;2024-03-23T10:46:04;7.90;;;2.07;;
5428;SDS011;2737;52.386;9.980;2024-03-23T10:48:31;12.03;;;2.27;;
5428;SDS011;2737;52.386;9.980;2024-03-23T10:50:58;11.60;;;2.30;;
5428;SDS011;2737;52.386;9.980;2024-03-23T10:53:25;9.53;;;1.90;;
5428;SDS011;2737;52.386;9.980;2024-03-23T10:55:55;17.67;;;3.70;;
5428;SDS011;2737;52.386;9.980;2024-03-23T10:58:23;7.10;;;2.17;;
5428;SDS011;2737;52.386;9.980;2024-03-23T11:00:53;11.70;;;2.10;;
5428;SDS011;2737;52.386;9.980;2024-03-23T11:03:32;13.20;;;2.30;;
5428;SDS011;2737;52.386;9.980;2024-03-23T11:06:00;6.53;;;1.90;;
5428;SDS011;2737;52.386;9.980;2024-03-23T11:08:33;4.30;;;1.00;;
5428;SDS011;2737;52.386;9.980;2024-03-23T11:11:15;3.90;;;1.30;;
5428;SDS011;2737;52.386;9.980;2024-03-23T11:13:43;4.57;;;1.40;;
5428;SDS011;2737;52.386;9.980;2024-03-23T11:16:14;2.70;;;1.47;;
5428;SDS011;2737;52.386;9.980;2024-03-23T11:18:41;8.30;;;1.40;;
5428;SDS011;2737;52.386;9.980;2024-03-23T11:21:08;4.10;;;1.57;;
5428;SDS011;2737;52.386;9.980;2024-03-23T11:23:34;5.80;;;2.03;;
5428;SDS011;2737;52.386;9.980;2024-03-23T11:26:01;9.43;;;1.80;;
5428;SDS011;2737;52.386;9.980;2024-03-23T11:28:33;3.50;;;1.50;;
5428;SDS011;2737;52.386;9.980;2024-03-23T11:31:00;2.63;;;1.20;;
5428;SDS011;2737;52.386;9.980;2024-03-23T11:33:26;2.53;;;1.17;;
5428;SDS011;2737;52.386;9.980;2024-03-23T11:35:54;9.63;;;1.77;;
5428;SDS011;2737;52.386;9.980;2024-03-23T11:38:20;4.33;;;2.30;;
5428;SDS011;2737;52.386;9.980;2024-03-23T11:40:47;3.13;;;1.47;;
5428;SDS011;2737;52.386;9.980;2024-03-23T11:43:15;2.03;;;1.20;;
5428;SDS011;2737;52.386;9.980;2024-03-23T11:45:44;9.87;;;2.07;;
5428;SDS011;2737;52.386;9.980;2024-03-23T11:48:11;4.80;;;2.00;;
5428;SDS011;2737;52.386;9.980;2024-03-23T11:50:39;4.83;;;1.83;;
5428;SDS011;2737;52.386;9.980;2024-03-23T11:53:12;7.03;;;2.10;;
5428;SDS011;2737;52.386;9.980;2024-03-23T11:55:45;7.80;;;1.63;;
5428;SDS011;2737;52.386;9.980;2024-03-23T11:58:12;5.93;;;2.37;;
5428;SDS011;2737;52.386;9.980;2024-03-23T12:00:40;7.47;;;2.47;;
5428;SDS011;2737;52.386;9.980;2024-03-23T12:03:08;7.47;;;2.67;;
5428;SDS011;2737;52.386;9.980;2024-03-23T12:05:36;8.50;;;2.60;;
5428;SDS011;2737;52.386;9.980;2024-03-23T12:08:16;4.20;;;1.87;;
5428;SDS011;2737;52.386;9.980;2024-03-23T12:10:44;2.37;;;1.40;;
5428;SDS011;2737;52.386;9.980;2024-03-23T12:13:14;3.77;;;1.63;;
5428;SDS011;2737;52.386;9.980;2024-03-23T12:15:42;2.70;;;1.50;;
5428;SDS011;2737;52.386;9.980;2024-03-23T12:18:10;3.47;;;1.60;;
5428;SDS011;2737;52.386;9.980;2024-03-23T12:20:38;6.53;;;1.47;;
5428;SDS011;2737;52.386;9.980;2024-03-23T12:23:05;1.70;;;1.10;;
5428;SDS011;2737;52.386;9.980;2024-03-23T12:25:36;3.33;;;1.30;;
5428;SDS011;2737;52.386;9.980;2024-03-23T12:28:03;2.17;;;1.50;;
5428;SDS011;2737;52.386;9.980;2024-03-23T12:30:31;2.50;;;1.40;;
5428;SDS011;2737;52.386;9.980;2024-03-23T12:32:58;3.40;;;1.57;;
5428;SDS011;2737;52.386;9.980;2024-03-23T12:35:27;10.03;;;1.70;;
5428;SDS011;2737;52.386;9.980;2024-03-23T12:37:53;3.43;;;1.67;;
5428;SDS011;2737;52.386;9.980;2024-03-23T12:40:20;1.70;;;1.60;;
5428;SDS011;2737;52.386;9.980;2024-03-23T12:42:46;2.10;;;1.10;;
5428;SDS011;2737;52.386;9.980;2024-03-23T12:45:13;1.80;;;1.30;;
5428;SDS011;2737;52.386;9.980;2024-03-23T12:47:39;6.83;;;1.87;;
5428;SDS011;2737;52.386;9.980;2024-03-23T12:50:06;3.50;;;1.80;;
5428;SDS011;2737;52.386;9.980;2024-03-23T12:52:34;2.00;;;1.80;;
5428;SDS011;2737;52.386;9.980;2024-03-23T12:55:01;3.70;;;2.20;;
5428;SDS011;2737;52.386;9.980;2024-03-23T12:57:28;5.17;;;1.80;;
5428;SDS011;2737;52.386;9.980;2024-03-23T12:59:55;7.00;;;2.40;;
5428;SDS011;2737;52.386;9.980;2024-03-23T13:02:21;4.40;;;1.90;;
5428;SDS011;2737;52.386;9.980;2024-03-23T13:04:49;3.67;;;1.87;;
5428;SDS011;2737;52.386;9.980;2024-03-23T13:07:15;5.60;;;1.47;;
5428;SDS011;2737;52.386;9.980;2024-03-23T13:09:44;5.40;;;2.10;;
5428;SDS011;2737;52.386;9.980;2024-03-23T13:12:10;3.20;;;1.63;;
5428;SDS011;2737;52.386;9.980;2024-03-23T13:14:38;1.80;;;1.47;;
5428;SDS011;2737;52.386;9.980;2024-03-23T13:17:04;3.63;;;1.30;;
5428;SDS011;2737;52.386;9.980;2024-03-23T13:19:33;3.43;;;1.00;;
5428;SDS011;2737;52.386;9.980;2024-03-23T13:21:59;1.50;;;0.87;;
5428;SDS011;2737;52.386;9.980;2024-03-23T13:24:27;1.83;;;0.97;;
5428;SDS011;2737;52.386;9.980;2024-03-23T13:26:55;3.03;;;1.00;;
5428;SDS011;2737;52.386;9.980;2024-03-23T13:29:22;3.63;;;1.10;;
5428;SDS011;2737;52.386;9.980;2024-03-23T13:31:49;3.60;;;1.17;;
5428;SDS011;2737;52.386;9.980;2024-03-23T13:34:18;2.93;;;1.20;;
5428;SDS011;2737;52.386;9.980;2024-03-23T13:36:45;1.07;;;0.87;;
5428;SDS011;2737;52.386;9.980;2024-03-23T13:39:12;2.60;;;0.97;;
5428;SDS011;2737;52.386;9.980;2024-03-23T13:41:39;4.10;;;1.60;;
5428;SDS011;2737;52.386;9.980;2024-03-23T13:44:08;3.73;;;1.20;;
5428;SDS011;2737;52.386;9.980;2024-03-23T13:46:35;3.27;;;1.40;;
5428;SDS011;2737;52.386;9.980;2024-03-23T13:49:02;1.50;;;1.13;;
5428;SDS011;2737;52.386;9.980;2024-03-23T13:51:29;5.07;;;1.40;;
5428;SDS011;2737;52.386;9.980;2024-03-23T13:53:56;2.70;;;1.70;;
5428;SDS011;2737;52.386;9.980;2024-03-23T13:56:22;11.07;;;1.90;;
5428;SDS011;2737;52.386;9.980;2024-03-23T13:58:49;4.30;;;1.60;;
5428;SDS011;2737;52.386;9.980;2024-03-23T14:01:17;2.90;;;2.03;;
5428;SDS011;2737;52.386;9.980;2024-03-23T14:03:44;4.47;;;1.50;;
5428;SDS011;2737;52.386;9.980;2024-03-23T14:06:10;4.40;;;1.70;;
5428;SDS011;2737;52.386;9.980;2024-03-23T14:08:37;5.13;;;1.67;;
5428;SDS011;2737;52.386;9.980;2024-03-23T14:11:04;1.60;;;1.30;;
5428;SDS011;2737;52.386;9.980;2024-03-23T14:13:31;3.77;;;1.40;;
5428;SDS011;2737;52.386;9.980;2024-03-23T14:15:58;3.60;;;1.30;;
5428;SDS011;2737;52.386;9.980;2024-03-23T14:18:26;3.20;;;1.50;;
5428;SDS011;2737;52.386;9.980;2024-03-23T14:20:56;2.80;;;1.20;;
5428;SDS011;2737;52.386;9.980;2024-03-23T14:23:25;2.70;;;1.40;;
5428;SDS011;2737;52.386;9.980;2024-03-23T14:25:52;4.50;;;1.20;;
5428;SDS011;2737;52.386;9.980;2024-03-23T14:28:21;3.67;;;1.67;;
5428;SDS011;2737;52.386;9.980;2024-03-23T14:30:48;6.93;;;1.67;;
5428;SDS011;2737;52.386;9.980;2024-03-23T14:33:15;3.67;;;1.27;;
5428;SDS011;2737;52.386;9.980;2024-03-23T14:35:43;3.27;;;1.40;;
5428;SDS011;2737;52.386;9.980;2024-03-23T14:38:17;7.10;;;1.33;;
5428;SDS011;2737;52.386;9.980;2024-03-23T14:40:43;5.83;;;1.40;;
5428;SDS011;2737;52.386;9.980;2024-03-23T14:43:10;3.47;;;1.20;;
5428;SDS011;2737;52.386;9.980;2024-03-23T14:45:37;1.40;;;1.27;;
5428;SDS011;2737;52.386;9.980;2024-03-23T14:48:04;2.53;;;1.20;;
5428;SDS011;2737;52.386;9.980;2024-03-23T14:50:30;2.50;;;1.20;;
5428;SDS011;2737;52.386;9.980;2024-03-23T14:52:58;7.50;;;1.60;;
5428;SDS011;2737;52.386;9.980;2024-03-23T14:55:24;2.60;;;1.47;;
5428;SDS011;2737;52.386;9.980;2024-03-23T14:57:51;3.50;;;1.07;;
5428;SDS011;2737;52.386;9.980;2024-03-23T15:00:18;4.13;;;0.90;;
5428;SDS011;2737;52.386;9.980;2024-03-23T15:02:45;1.53;;;0.70;;
5428;SDS011;2737;52.386;9.980;2024-03-23T15:05:12;1.30;;;0.80;;
5428;SDS011;2737;52.386;9.980;2024-03-23T15:07:39;0.90;;;0.60;;
5428;SDS011;2737;52.386;9.980;2024-03-23T15:10:07;0.50;;;0.50;;
5428;SDS011;2737;52.386;9.980;2024-03-23T15:12:35;1.10;;;0.63;;
5428;SDS011;2737;52.386;9.980;2024-03-23T15:15:01;4.70;;;0.90;;
5428;SDS011;2737;52.386;9.980;2024-03-23T15:17:28;3.27;;;1.10;;
5428;SDS011;2737;52.386;9.980;2024-03-23T15:19:59;1.30;;;0.53;;
5428;SDS011;2737;52.386;9.980;2024-03-23T15:22:26;1.40;;;0.80;;
5428;SDS011;2737;52.386;9.980;2024-03-23T15:24:52;1.23;;;0.70;;
5428;SDS011;2737;52.386;9.980;2024-03-23T15:27:20;3.33;;;0.70;;
5428;SDS011;2737;52.386;9.980;2024-03-23T15:29:47;3.90;;;0.80;;
5428;SDS011;2737;52.386;9.980;2024-03-23T15:32:14;3.30;;;0.90;;
5428;SDS011;2737;52.386;9.980;2024-03-23T15:34:42;6.30;;;1.77;;
5428;SDS011;2737;52.386;9.980;2024-03-23T15:37:09;4.03;;;2.10;;
5428;SDS011;2737;52.386;9.980;2024-03-23T15:39:35;7.80;;;1.00;;
5428;SDS011;2737;52.386;9.980;2024-03-23T15:42:02;1.10;;;0.80;;
5428;SDS011;2737;52.386;9.980;2024-03-23T15:44:30;1.17;;;0.80;;
5428;SDS011;2737;52.386;9.980;2024-03-23T15:46:57;2.40;;;1.10;;
5428;SDS011;2737;52.386;9.980;2024-03-23T15:49:24;2.03;;;0.97;;
5428;SDS011;2737;52.386;9.980;2024-03-23T15:51:51;2.43;;;1.30;;
5428;SDS011;2737;52.386;9.980;2024-03-23T15:54:18;6.37;;;1.47;;
5428;SDS011;2737;52.386;9.980;2024-03-23T15:56:46;3.37;;;1.37;;
5428;SDS011;2737;52.386;9.980;2024-03-23T15:59:12;7.10;;;1.30;;
5428;SDS011;2737;52.386;9.980;2024-03-23T16:01:41;3.53;;;1.13;;
5428;SDS011;2737;52.386;9.980;2024-03-23T16:04:09;1.77;;;1.00;;